Time;durP1;ratioP1;P1;durP2;ratioP2;P2;SDS_P1;SDS_P2;PMS_P1;PMS_P2;Temp;Humidity;BMP_temperature;BMP_pressure;BME280_temperature;BME280_humidity;BME280_pressure;Samples;Min_cycle;Max_cycle;Signal;HPM_P1;HPM_P2
2023/05/14 00:00:44;;;;;;;0.90;0.90;;;;;;;11.84;75.07;97641.50;5026211;28;20068;-56
2023/05/14 00:03:11;;;;;;;1.00;1.00;;;;;;;11.83;75.21;97645.44;5024698;28;20053;-56
2023/05/14 00:05:37;;;;;;;0.90;0.90;;;;;;;11.82;75.36;97644.63;5026203;28;20045;-55
2023/05/14 00:08:05;;;;;;;0.90;0.90;;;;;;;11.82;75.93;97643.84;5026357;28;20064;-58
2023/05/14 00:10:31;;;;;;;0.90;0.90;;;;;;;11.72;75.72;97638.88;5025883;28;20141;-58
2023/05/14 00:12:58;;;;;;;0.90;0.90;;;;;;;11.43;75.85;97564.47;5024691;28;20543;-55
2023/05/14 00:15:24;;;;;;;0.93;0.93;;;;;;;11.97;75.65;97640.19;5025701;28;20103;-56
2023/05/14 00:17:51;;;;;;;0.90;0.90;;;;;;;11.44;74.87;97555.78;5026001;28;20053;-55
2023/05/14 00:20:18;;;;;;;1.00;1.00;;;;;;;12.07;73.60;97634.06;5025921;28;20053;-58
2023/05/14 00:22:44;;;;;;;1.00;1.00;;;;;;;12.16;74.13;97631.88;5026197;28;20492;-56
2023/05/14 00:25:11;;;;;;;0.90;0.90;;;;;;;12.14;74.31;97639.75;5025728;28;20111;-56
2023/05/14 00:27:37;;;;;;;0.90;0.90;;;;;;;12.22;73.63;97613.72;5025011;28;20045;-56
2023/05/14 00:30:08;;;;;;;1.00;1.00;;;;;;;12.21;72.96;97617.69;5025793;28;20053;-57
2023/05/14 00:32:34;;;;;;;1.00;1.00;;;;;;;12.20;73.08;97616.09;5026292;28;20057;-57
2023/05/14 00:35:03;;;;;;;1.00;1.00;;;;;;;12.17;72.84;97609.28;5025346;28;20049;-55
2023/05/14 00:37:29;;;;;;;1.00;1.00;;;;;;;12.14;73.09;97611.97;5025301;28;20053;-58
2023/05/14 00:39:56;;;;;;;0.93;0.93;;;;;;;12.14;73.38;97617.53;5025884;28;20107;-56
2023/05/14 00:42:23;;;;;;;0.90;0.90;;;;;;;12.14;73.40;97611.97;5025357;28;20071;-56
2023/05/14 00:44:49;;;;;;;1.00;1.00;;;;;;;12.03;73.56;97622.06;5025457;28;20092;-55
2023/05/14 00:47:16;;;;;;;0.90;0.90;;;;;;;11.86;74.65;97622.50;5025232;28;20057;-58
2023/05/14 00:49:44;;;;;;;0.90;0.90;;;;;;;11.78;74.98;97620.75;5025463;28;20446;-55
2023/05/14 00:52:11;;;;;;;0.90;0.90;;;;;;;11.87;75.65;97621.38;5024815;28;20081;-56
2023/05/14 00:54:38;;;;;;;0.90;0.90;;;;;;;11.69;75.74;97589.63;5023866;28;20530;-58
2023/05/14 00:57:05;;;;;;;0.90;0.90;;;;;;;11.91;75.68;97613.91;5024761;28;20053;-58
2023/05/14 00:59:32;;;;;;;1.00;1.00;;;;;;;12.05;74.57;97603.09;5025270;28;20132;-56
2023/05/14 01:01:59;;;;;;;1.00;1.00;;;;;;;12.16;73.76;97606.88;5025241;28;20117;-56
2023/05/14 01:04:26;;;;;;;1.02;1.02;;;;;;;12.18;72.90;97599.00;5024858;28;20136;-55
2023/05/14 01:07:32;;;;;;;1.00;1.00;;;;;;;12.19;73.04;97597.81;5024499;28;20123;-55
2023/05/14 01:10:10;;;;;;;1.00;1.00;;;;;;;12.16;73.00;97593.81;5025038;28;20154;-56
2023/05/14 01:12:59;;;;;;;1.00;1.00;;;;;;;12.08;73.66;97592.06;5024764;28;20053;-55
2023/05/14 01:15:29;;;;;;;1.08;1.08;;;;;;;11.95;74.22;97603.66;5025053;28;20119;-56
2023/05/14 01:18:03;;;;;;;1.00;1.00;;;;;;;11.94;74.08;97599.28;5024829;28;20053;-57
2023/05/14 01:20:30;;;;;;;0.88;0.88;;;;;;;11.93;73.72;97594.91;5024751;28;20053;-56
2023/05/14 01:22:56;;;;;;;1.00;1.00;;;;;;;11.96;73.56;97594.19;5024742;28;20130;-55
2023/05/14 01:25:23;;;;;;;0.90;0.90;;;;;;;11.74;74.40;97564.38;5024778;28;20448;-56
2023/05/14 01:28:11;;;;;;;1.00;1.00;;;;;;;11.85;75.08;97593.16;5024832;28;20156;-56
2023/05/14 01:31:06;;;;;;;0.95;0.95;;;;;;;11.20;76.12;97516.41;5025121;28;21249;-55
2023/05/14 01:33:35;;;;;;;0.90;0.90;;;;;;;11.58;75.97;97589.41;5024901;28;20085;-56
2023/05/14 01:36:02;;;;;;;1.00;1.00;;;;;;;11.57;75.93;97554.47;5024548;28;20103;-56
2023/05/14 01:38:32;;;;;;;1.00;1.00;;;;;;;11.76;75.60;97589.81;5022942;28;20049;-58
2023/05/14 01:41:00;;;;;;;1.00;1.00;;;;;;;11.46;75.33;97536.00;5024425;28;20057;-56
2023/05/14 01:43:27;;;;;;;0.90;0.90;;;;;;;11.93;74.54;97594.91;5024292;28;20052;-56
2023/05/14 01:45:54;;;;;;;1.00;1.00;;;;;;;11.90;74.71;97602.00;5024346;28;20049;-56
2023/05/14 01:48:21;;;;;;;1.00;1.00;;;;;;;11.97;74.07;97585.47;5024201;28;20111;-55
2023/05/14 01:50:48;;;;;;;0.90;0.90;;;;;;;12.01;74.32;97580.00;5024263;28;20546;-56
2023/05/14 01:53:14;;;;;;;1.00;1.00;;;;;;;12.02;74.83;97581.59;5022733;28;20574;-57
2023/05/14 01:55:41;;;;;;;1.00;1.00;;;;;;;12.05;74.31;97576.13;5024236;28;20484;-55
2023/05/14 01:58:07;;;;;;;0.90;0.90;;;;;;;12.07;74.45;97573.78;5022431;28;20053;-57
2023/05/14 02:00:34;;;;;;;1.00;1.00;;;;;;;12.08;74.12;97580.94;5024211;28;20115;-56
2023/05/14 02:03:01;;;;;;;0.90;0.90;;;;;;;11.43;74.30;97493.16;5023955;28;20087;-57
2023/05/14 02:05:27;;;;;;;1.00;1.00;;;;;;;12.08;73.67;97580.94;5023000;28;20064;-55
2023/05/14 02:07:54;;;;;;;1.00;1.00;;;;;;;11.90;73.39;97585.31;5024003;28;20053;-56
2023/05/14 02:10:20;;;;;;;0.90;0.90;;;;;;;11.86;73.82;97583.66;5024299;28;20111;-55
2023/05/14 02:12:47;;;;;;;1.00;1.00;;;;;;;11.96;73.89;97578.34;5024088;28;20508;-57
2023/05/14 02:15:14;;;;;;;0.95;0.95;;;;;;;11.94;73.62;97586.22;5023952;28;20103;-56
2023/05/14 02:17:40;;;;;;;1.00;1.00;;;;;;;11.84;73.68;97597.09;5023590;28;20460;-57
2023/05/14 02:20:09;;;;;;;1.00;1.00;;;;;;;11.32;74.60;97524.59;5024097;28;20080;-55
2023/05/14 02:22:36;;;;;;;0.90;0.90;;;;;;;11.28;74.49;97504.31;5023613;28;20049;-57
2023/05/14 02:25:03;;;;;;;0.90;0.90;;;;;;;11.50;74.57;97553.53;5023618;28;20509;-56
2023/05/14 02:27:29;;;;;;;0.90;0.90;;;;;;;11.82;75.25;97580.00;5023680;28;20111;-55
2023/05/14 02:29:59;;;;;;;0.80;0.80;;;;;;;11.80;75.64;97574.00;5022677;28;20049;-57
2023/05/14 02:32:27;;;;;;;0.90;0.90;;;;;;;11.79;76.50;97572.41;5022407;28;20045;-58
2023/05/14 02:34:54;;;;;;;0.90;0.90;;;;;;;11.78;76.00;97566.06;5023966;28;20107;-56
2023/05/14 02:37:20;;;;;;;0.90;0.90;;;;;;;11.79;75.39;97578.75;5023648;28;20052;-56
2023/05/14 02:39:47;;;;;;;0.90;0.90;;;;;;;11.62;74.45;97561.69;5023791;28;20080;-56
2023/05/14 02:42:14;;;;;;;0.80;0.80;;;;;;;11.83;74.85;97589.94;5023585;28;20046;-56
2023/05/14 02:44:41;;;;;;;0.90;0.90;;;;;;;11.63;74.50;97585.56;5022646;28;20049;-55
2023/05/14 02:47:07;;;;;;;0.95;0.95;;;;;;;11.09;75.44;97527.28;5022722;28;20394;-56
2023/05/14 02:49:34;;;;;;;0.90;0.90;;;;;;;11.54;74.14;97582.94;5024123;28;20414;-56
2023/05/14 02:52:01;;;;;;;0.80;0.80;;;;;;;11.56;73.83;97582.59;5024810;28;20599;-56
2023/05/14 02:54:27;;;;;;;0.90;0.90;;;;;;;11.44;74.80;97558.56;5025984;28;20819;-56
2023/05/14 02:56:54;;;;;;;0.90;0.90;;;;;;;11.34;74.74;97584.09;5026445;28;20045;-55
2023/05/14 02:59:22;;;;;;;0.80;0.80;;;;;;;11.52;74.65;97582.50;5027281;28;20080;-56
2023/05/14 03:01:49;;;;;;;0.90;0.90;;;;;;;11.40;74.33;97581.81;5027586;28;20049;-56
2023/05/14 03:04:16;;;;;;;0.80;0.80;;;;;;;11.37;73.92;97552.03;5027175;28;20057;-56
2023/05/14 03:06:43;;;;;;;0.90;0.90;;;;;;;11.74;73.50;97586.59;5027901;28;20049;-58
2023/05/14 03:09:09;;;;;;;1.00;1.00;;;;;;;11.70;73.32;97580.13;5027386;28;20049;-56
2023/05/14 03:11:36;;;;;;;0.90;0.90;;;;;;;11.75;73.65;97577.06;5027468;28;20119;-57
2023/05/14 03:14:02;;;;;;;1.00;1.00;;;;;;;11.83;72.53;97579.66;5025696;28;20136;-56
2023/05/14 03:16:29;;;;;;;1.08;1.08;;;;;;;11.84;72.35;97584.03;5010939;28;20619;-55
2023/05/14 03:18:56;;;;;;;0.98;0.98;;;;;;;11.25;72.13;97514.16;5006891;28;20061;-56
2023/05/14 03:21:22;;;;;;;0.90;0.90;;;;;;;11.85;71.62;97576.50;5007418;28;20168;-56
2023/05/14 03:23:49;;;;;;;0.90;0.90;;;;;;;11.92;70.22;97576.63;5007124;28;20512;-56
2023/05/14 03:26:16;;;;;;;0.90;0.90;;;;;;;11.93;71.68;97572.72;5007334;28;20724;-55
2023/05/14 03:28:43;;;;;;;0.90;0.90;;;;;;;11.71;74.20;97529.81;5006830;28;20050;-56
2023/05/14 03:31:09;;;;;;;0.90;0.90;;;;;;;12.04;75.56;97573.72;5006989;28;20136;-56
2023/05/14 03:33:36;;;;;;;1.00;1.00;;;;;;;11.99;76.37;97576.78;5006921;28;20141;-58
2023/05/14 03:36:04;;;;;;;1.00;1.00;;;;;;;11.71;75.21;97526.25;5007370;28;20064;-55
2023/05/14 03:38:30;;;;;;;0.90;0.90;;;;;;;12.18;74.46;97582.31;5005222;28;20142;-58
2023/05/14 03:40:57;;;;;;;1.00;1.00;;;;;;;12.11;73.72;97579.41;5007143;28;20497;-56
2023/05/14 03:43:24;;;;;;;1.00;1.00;;;;;;;12.31;72.96;97588.50;5006610;28;20050;-56
2023/05/14 03:45:51;;;;;;;1.00;1.00;;;;;;;12.29;73.69;97586.09;5006484;28;20121;-55
2023/05/14 03:48:18;;;;;;;0.90;0.90;;;;;;;12.49;72.80;97590.44;5006727;28;20119;-57
2023/05/14 03:50:46;;;;;;;1.00;1.00;;;;;;;12.61;72.74;97581.94;5006568;28;20081;-56
2023/05/14 03:53:12;;;;;;;1.00;1.00;;;;;;;12.67;73.00;97586.03;5006804;28;20496;-58
2023/05/14 03:55:39;;;;;;;0.90;0.90;;;;;;;12.77;73.04;97590.16;5005324;28;20052;-55
2023/05/14 03:58:12;;;;;;;1.00;1.00;;;;;;;12.79;72.29;97594.16;5006060;28;20582;-57
2023/05/14 04:00:42;;;;;;;1.10;1.10;;;;;;;12.74;72.68;97588.91;5005542;28;20115;-55
2023/05/14 04:03:09;;;;;;;0.95;0.95;;;;;;;12.90;71.45;97592.34;5006287;28;20591;-56
2023/05/14 04:05:35;;;;;;;1.00;1.00;;;;;;;12.83;70.77;97580.31;5006393;28;20042;-55
2023/05/14 04:08:02;;;;;;;1.00;1.00;;;;;;;12.95;70.74;97585.69;5006032;28;20089;-56
2023/05/14 04:10:31;;;;;;;1.00;1.00;;;;;;;13.04;69.98;97600.19;5006389;28;20135;-55
2023/05/14 04:12:57;;;;;;;1.10;1.10;;;;;;;12.52;73.10;97550.78;5006058;28;20654;-56
2023/05/14 04:15:24;;;;;;;1.00;1.00;;;;;;;12.59;76.17;97605.72;5006073;28;20081;-56
2023/05/14 04:17:51;;;;;;;1.20;1.20;;;;;;;12.98;75.22;97608.00;5004592;28;20057;-56
2023/05/14 04:20:17;;;;;;;1.00;1.00;;;;;;;13.20;73.16;97592.47;5005852;28;20053;-55
2023/05/14 04:22:44;;;;;;;1.00;1.00;;;;;;;12.73;72.36;97484.47;5005750;28;20520;-57
2023/05/14 04:25:11;;;;;;;1.02;1.02;;;;;;;13.48;71.07;97593.69;5004822;28;20062;-56
2023/05/14 04:27:39;;;;;;;1.10;1.10;;;;;;;13.66;67.54;97589.19;5005843;28;20054;-56
2023/05/14 04:30:07;;;;;;;1.20;1.20;;;;;;;13.57;67.66;97591.47;5005914;28;20053;-56
2023/05/14 04:32:34;;;;;;;1.20;1.20;;;;;;;13.58;66.41;97587.50;5004502;28;20053;-57
2023/05/14 04:35:01;;;;;;;1.23;1.23;;;;;;;13.74;65.52;97567.03;5005104;28;20049;-56
2023/05/14 04:37:28;;;;;;;1.17;1.17;;;;;;;13.84;65.92;97566.34;5003865;28;20053;-55
2023/05/14 04:39:54;;;;;;;1.15;1.15;;;;;;;13.99;67.24;97579.28;5003933;28;20064;-58
2023/05/14 04:42:21;;;;;;;1.15;1.15;;;;;;;13.39;66.92;97476.28;5003561;28;20053;-56
2023/05/14 04:44:48;;;;;;;1.20;1.20;;;;;;;14.13;65.84;97568.31;5002561;28;20081;-56
2023/05/14 04:47:14;;;;;;;1.20;1.20;;;;;;;14.26;64.86;97566.88;5001376;28;20430;-55
2023/05/14 04:49:42;;;;;;;1.20;1.20;;;;;;;14.38;64.67;97574.97;5002606;28;20116;-56
2023/05/14 04:52:08;;;;;;;1.30;1.30;;;;;;;14.67;63.84;97565.69;5004469;28;20053;-55
2023/05/14 04:54:35;;;;;;;1.30;1.30;;;;;;;15.04;62.42;97558.88;5005386;28;20151;-56
2023/05/14 04:57:02;;;;;;;1.33;1.33;;;;;;;15.45;60.19;97567.97;5005293;28;20042;-56
2023/05/14 04:59:30;;;;;;;1.33;1.33;;;;;;;15.66;59.17;97579.25;5003850;28;20116;-56
2023/05/14 05:01:56;;;;;;;1.30;1.30;;;;;;;16.09;57.45;97592.22;5003949;28;20054;-58
2023/05/14 05:04:23;;;;;;;1.40;1.40;;;;;;;16.25;55.89;97589.91;5004203;28;20081;-56
2023/05/14 05:06:50;;;;;;;1.58;1.58;;;;;;;16.31;54.49;97605.09;5005555;28;20115;-58
2023/05/14 05:09:17;;;;;;;1.30;1.30;;;;;;;16.30;54.25;97592.31;5004256;28;20073;-56
2023/05/14 05:11:45;;;;;;;1.38;1.38;;;;;;;16.11;54.59;97600.22;5003207;28;20124;-56
2023/05/14 05:14:11;;;;;;;1.45;1.45;;;;;;;15.35;57.30;97596.56;5004960;28;20104;-55
2023/05/14 05:16:38;;;;;;;1.48;1.48;;;;;;;15.04;58.24;97580.38;5003680;28;20073;-56
2023/05/14 05:19:04;;;;;;;1.20;1.20;;;;;;;14.73;58.55;97508.41;5004912;28;20061;-55
2023/05/14 05:21:32;;;;;;;1.50;1.50;;;;;;;15.23;59.22;97531.88;5005138;28;20428;-56
2023/05/14 05:23:58;;;;;;;1.40;1.40;;;;;;;15.73;59.47;97600.84;5004786;28;20092;-56
2023/05/14 05:26:26;;;;;;;1.33;1.33;;;;;;;15.45;59.22;97606.22;5004671;28;20135;-56
2023/05/14 05:28:52;;;;;;;1.50;1.50;;;;;;;15.14;60.16;97590.84;5005078;28;20053;-56
2023/05/14 05:31:19;;;;;;;1.42;1.42;;;;;;;15.32;60.28;97602.94;5004933;28;20077;-57
2023/05/14 05:33:46;;;;;;;1.25;1.25;;;;;;;15.27;59.85;97627.63;5004981;28;20056;-56
2023/05/14 05:36:12;;;;;;;1.50;1.50;;;;;;;15.54;58.43;97631.84;4999782;28;20500;-56
2023/05/14 05:38:39;;;;;;;1.30;1.30;;;;;;;15.18;58.40;97570.13;5002641;28;20127;-59
2023/05/14 05:41:06;;;;;;;1.30;1.30;;;;;;;14.95;60.75;97638.50;5001915;28;20140;-56
2023/05/14 05:43:33;;;;;;;1.30;1.30;;;;;;;15.07;58.43;97613.09;5002656;28;20077;-57
2023/05/14 05:46:00;;;;;;;1.30;1.30;;;;;;;15.68;58.46;97649.47;5002572;28;20061;-56
2023/05/14 05:48:27;;;;;;;1.40;1.40;;;;;;;15.91;57.74;97703.13;5002952;28;20237;-55
2023/05/14 05:50:53;;;;;;;1.30;1.30;;;;;;;15.82;59.89;97643.19;5001205;28;20476;-56
2023/05/14 05:53:20;;;;;;;1.40;1.40;;;;;;;15.67;60.36;97631.13;5002976;28;20050;-56
2023/05/14 05:55:47;;;;;;;1.60;1.60;;;;;;;15.14;62.38;97641.06;5001074;28;20280;-56
2023/05/14 05:58:15;;;;;;;1.20;1.20;;;;;;;14.99;60.23;97656.06;5003004;28;20058;-56
2023/05/14 06:00:42;;;;;;;1.20;1.20;;;;;;;15.58;59.35;97655.81;5001024;28;20058;-55
2023/05/14 06:03:10;;;;;;;1.30;1.30;;;;;;;15.62;57.51;97628.69;5002144;28;20112;-57
2023/05/14 06:05:36;;;;;;;1.50;1.50;;;;;;;15.73;58.29;97640.75;5001975;28;20068;-56
2023/05/14 06:08:04;;;;;;;1.40;1.40;;;;;;;15.77;57.21;97591.31;5002248;28;20065;-56
2023/05/14 06:10:30;;;;;;;1.50;1.50;;;;;;;16.14;57.99;97628.19;5001633;28;20598;-59
2023/05/14 06:12:57;;;;;;;1.48;1.48;;;;;;;15.79;59.28;97628.00;5004064;28;20084;-56
2023/05/14 06:15:24;;;;;;;1.60;1.60;;;;;;;15.76;60.95;97634.38;5004270;28;20056;-56
2023/05/14 06:17:50;;;;;;;1.40;1.40;;;;;;;14.84;65.12;97627.22;5003016;28;20053;-55
2023/05/14 06:20:18;;;;;;;1.30;1.30;;;;;;;15.22;64.45;97642.75;5004383;28;20053;-56
2023/05/14 06:22:44;;;;;;;1.40;1.40;;;;;;;15.76;63.58;97651.13;5004439;28;20108;-56
2023/05/14 06:25:11;;;;;;;1.60;1.60;;;;;;;16.05;62.73;97644.53;5006971;28;20157;-58
2023/05/14 06:27:37;;;;;;;1.27;1.27;;;;;;;15.68;63.81;97637.53;5008003;28;20126;-57
2023/05/14 06:30:05;;;;;;;1.40;1.40;;;;;;;14.75;63.30;97572.94;5008205;28;20056;-58
2023/05/14 06:32:32;;;;;;;1.40;1.40;;;;;;;14.78;64.89;97650.25;5008038;28;20049;-56
2023/05/14 06:34:59;;;;;;;1.20;1.20;;;;;;;14.72;66.35;97640.66;5006643;28;20104;-57
2023/05/14 06:37:26;;;;;;;1.27;1.27;;;;;;;15.29;65.79;97642.78;5007650;28;20500;-57
2023/05/14 06:39:53;;;;;;;1.25;1.25;;;;;;;15.68;64.23;97655.06;5008143;28;20050;-57
2023/05/14 06:42:23;;;;;;;1.33;1.33;;;;;;;15.94;63.35;97640.06;5006464;28;20069;-57
2023/05/14 06:44:49;;;;;;;1.33;1.33;;;;;;;15.98;62.63;97652.88;5007860;28;20054;-58
2023/05/14 06:47:16;;;;;;;1.38;1.38;;;;;;;16.28;61.84;97667.41;5007433;28;20130;-58
2023/05/14 06:49:43;;;;;;;1.40;1.40;;;;;;;14.16;62.25;97522.97;5006010;28;20461;-58
2023/05/14 06:52:09;;;;;;;1.23;1.23;;;;;;;15.62;63.06;97661.41;5007305;28;20054;-56
2023/05/14 06:54:36;;;;;;;1.38;1.38;;;;;;;15.47;60.31;97662.50;5008219;28;20187;-57
2023/05/14 06:57:03;;;;;;;1.30;1.30;;;;;;;15.54;59.03;97671.72;5006143;28;20516;-58
2023/05/14 06:59:29;;;;;;;1.33;1.33;;;;;;;15.35;59.58;97690.69;5006037;28;20133;-60
2023/05/14 07:01:56;;;;;;;1.40;1.40;;;;;;;15.37;57.60;97694.69;5007694;28;20049;-57
2023/05/14 07:04:23;;;;;;;1.40;1.40;;;;;;;15.33;59.11;97688.28;5007262;28;20145;-58
2023/05/14 07:06:49;;;;;;;1.25;1.25;;;;;;;15.09;56.16;97645.00;5007495;28;20749;-57
2023/05/14 07:09:16;;;;;;;1.55;1.55;;;;;;;15.81;57.27;97681.50;5007728;28;20054;-58
2023/05/14 07:11:43;;;;;;;1.40;1.40;;;;;;;16.18;57.32;97679.34;5006367;28;20130;-56
2023/05/14 07:14:09;;;;;;;1.58;1.58;;;;;;;16.43;56.14;97697.03;5007374;28;20104;-57
2023/05/14 07:16:36;;;;;;;1.40;1.40;;;;;;;16.47;55.30;97683.13;5007455;28;20580;-57
2023/05/14 07:19:03;;;;;;;1.42;1.42;;;;;;;16.40;54.05;97695.03;5007602;28;20520;-56
2023/05/14 07:21:30;;;;;;;1.45;1.45;;;;;;;15.93;56.31;97625.28;5007007;28;20132;-58
2023/05/14 07:23:57;;;;;;;1.60;1.60;;;;;;;16.46;54.51;97661.91;5007362;28;20057;-57
2023/05/14 07:26:23;;;;;;;1.50;1.50;;;;;;;16.67;53.71;97694.75;5006919;28;20049;-57
2023/05/14 07:28:50;;;;;;;1.55;1.55;;;;;;;16.54;55.71;97692.31;5006987;28;20065;-57
2023/05/14 07:31:17;;;;;;;1.40;1.40;;;;;;;16.50;54.63;97694.28;5007004;28;20135;-56
2023/05/14 07:33:43;;;;;;;1.63;1.63;;;;;;;16.46;53.92;97679.50;5005306;28;20054;-57
2023/05/14 07:36:10;;;;;;;1.60;1.60;;;;;;;16.23;55.27;97651.00;5006777;28;20493;-59
2023/05/14 07:38:37;;;;;;;1.67;1.67;;;;;;;16.52;53.92;97700.31;5005311;28;21947;-57
2023/05/14 07:41:04;;;;;;;1.80;1.80;;;;;;;16.28;54.85;97645.03;5006869;28;20604;-59
2023/05/14 07:43:30;;;;;;;1.40;1.40;;;;;;;16.77;53.28;97697.59;5005287;28;20057;-59
2023/05/14 07:45:57;;;;;;;1.70;1.70;;;;;;;16.90;53.85;97681.25;5005248;28;20084;-57
2023/05/14 07:48:24;;;;;;;1.65;1.65;;;;;;;17.13;53.76;97690.09;5005078;28;20112;-58
2023/05/14 07:50:50;;;;;;;1.50;1.50;;;;;;;16.08;56.06;97682.88;5007118;28;20050;-57
2023/05/14 07:53:17;;;;;;;1.50;1.50;;;;;;;16.01;56.78;97674.44;5004716;28;20049;-57
2023/05/14 07:55:45;;;;;;;1.40;1.40;;;;;;;16.22;56.88;97613.06;5006692;28;20058;-56
2023/05/14 07:58:12;;;;;;;1.58;1.58;;;;;;;17.19;54.22;97677.28;5006358;28;20552;-57
2023/05/14 08:00:38;;;;;;;1.75;1.75;;;;;;;17.45;51.49;97674.16;5006470;28;20076;-56
2023/05/14 08:03:05;;;;;;;1.52;1.52;;;;;;;17.58;51.19;97689.34;5005744;28;20468;-60
2023/05/14 08:05:32;;;;;;;1.77;1.77;;;;;;;17.51;50.73;97638.94;5006466;28;20500;-56
2023/05/14 08:07:59;;;;;;;1.80;1.80;;;;;;;17.97;51.22;97695.75;5004438;28;20069;-57
2023/05/14 08:10:25;;;;;;;1.73;1.73;;;;;;;18.16;50.80;97708.53;5006247;28;20582;-56
2023/05/14 08:12:53;;;;;;;1.85;1.85;;;;;;;18.32;49.92;97684.41;5006064;28;20050;-57
2023/05/14 08:15:20;;;;;;;2.00;2.00;;;;;;;18.34;50.24;97715.69;5004972;28;20351;-57
2023/05/14 08:17:47;;;;;;;1.90;1.90;;;;;;;17.65;51.12;97666.94;5004760;28;20164;-57
2023/05/14 08:20:13;;;;;;;1.98;1.98;;;;;;;18.02;50.00;97681.28;5006138;28;20085;-56
2023/05/14 08:22:40;;;;;;;1.98;1.98;;;;;;;18.19;49.08;97674.88;5005865;28;20087;-59
2023/05/14 08:25:07;;;;;;;1.80;1.80;;;;;;;17.96;49.95;97663.28;5005957;28;20085;-56
2023/05/14 08:27:33;;;;;;;2.10;2.10;;;;;;;18.20;50.44;97701.69;5005665;28;20062;-56
2023/05/14 08:30:00;;;;;;;1.95;1.95;;;;;;;17.96;49.96;97705.34;5006168;28;20053;-56
2023/05/14 08:32:27;;;;;;;1.80;1.80;;;;;;;17.74;50.46;97664.53;5006147;28;20050;-58
2023/05/14 08:34:53;;;;;;;2.03;2.03;;;;;;;17.68;50.04;97677.34;5005909;28;20592;-56
2023/05/14 08:37:20;;;;;;;1.88;1.88;;;;;;;17.34;51.81;97656.53;5006052;28;20088;-57
2023/05/14 08:39:46;;;;;;;1.83;1.83;;;;;;;17.47;52.05;97733.38;5005690;28;20093;-57
2023/05/14 08:42:17;;;;;;;1.67;1.67;;;;;;;16.56;53.84;97684.34;5006000;28;20061;-57
2023/05/14 08:44:51;;;;;;;1.85;1.85;;;;;;;16.87;54.17;97710.00;5005833;28;20049;-59
2023/05/14 08:47:20;;;;;;;1.52;1.52;;;;;;;16.76;56.40;97735.16;5005440;28;20092;-58
2023/05/14 08:49:55;;;;;;;1.40;1.40;;;;;;;16.02;59.71;97740.34;5004137;28;20119;-58
2023/05/14 08:52:22;;;;;;;1.58;1.58;;;;;;;15.57;62.21;97737.97;5005966;28;20069;-58
2023/05/14 08:54:52;;;;;;;1.52;1.52;;;;;;;14.90;65.82;97703.81;5005301;28;20520;-61
2023/05/14 08:57:20;;;;;;;1.30;1.30;;;;;;;14.99;67.91;97750.94;5005428;28;20307;-61
2023/05/14 08:59:47;;;;;;;1.30;1.30;;;;;;;14.88;64.19;97758.38;5004867;28;20116;-58
2023/05/14 09:02:16;;;;;;;1.40;1.40;;;;;;;14.66;65.21;97753.72;5003926;28;20053;-57
2023/05/14 09:04:43;;;;;;;1.30;1.30;;;;;;;14.15;68.89;97694.91;5004745;28;20112;-59
2023/05/14 09:07:10;;;;;;;1.27;1.27;;;;;;;14.39;68.46;97749.38;5005080;28;20045;-58
2023/05/14 09:09:37;;;;;;;1.10;1.10;;;;;;;14.28;71.67;97746.47;5004974;28;20512;-57
2023/05/14 09:12:05;;;;;;;1.20;1.20;;;;;;;14.10;74.89;97758.50;5005503;28;20120;-58
2023/05/14 09:14:32;;;;;;;1.20;1.20;;;;;;;13.84;76.99;97733.44;5004916;28;20060;-57
2023/05/14 09:16:59;;;;;;;1.20;1.20;;;;;;;13.99;79.56;97771.47;5005082;28;20054;-58
2023/05/14 09:19:25;;;;;;;1.10;1.10;;;;;;;13.94;81.95;97777.38;5004656;28;20058;-58
2023/05/14 09:21:57;;;;;;;1.20;1.20;;;;;;;13.86;81.91;97772.88;5005154;28;20085;-59
2023/05/14 09:24:27;;;;;;;1.20;1.20;;;;;;;13.78;80.66;97757.22;5004816;28;20085;-56
2023/05/14 09:26:57;;;;;;;1.10;1.10;;;;;;;13.78;83.20;97762.78;5013272;28;20046;-57
2023/05/14 09:29:28;;;;;;;1.10;1.10;;;;;;;13.70;82.51;97773.78;5003426;28;20147;-56
2023/05/14 09:31:56;;;;;;;1.10;1.10;;;;;;;12.37;84.18;97531.47;5005027;28;20081;-58
2023/05/14 09:34:24;;;;;;;1.20;1.20;;;;;;;13.48;81.26;97693.91;5004556;28;20058;-58
2023/05/14 09:37:02;;;;;;;1.15;1.15;;;;;;;13.73;80.21;97743.59;5004415;28;20100;-58
2023/05/14 09:39:29;;;;;;;1.10;1.10;;;;;;;13.79;83.23;97736.53;5004521;28;20120;-58
2023/05/14 09:41:57;;;;;;;1.20;1.20;;;;;;;14.04;84.42;97734.91;5003459;28;20053;-57
2023/05/14 09:44:24;;;;;;;1.08;1.08;;;;;;;13.91;85.62;97689.78;5004172;28;20089;-57
2023/05/14 09:46:52;;;;;;;1.23;1.23;;;;;;;13.83;81.43;97631.59;5003374;28;20159;-57
2023/05/14 09:49:20;;;;;;;1.20;1.20;;;;;;;14.42;80.86;97726.31;5004478;28;20488;-57
2023/05/14 09:51:48;;;;;;;1.30;1.30;;;;;;;14.55;81.08;97716.53;5004935;28;20049;-59
2023/05/14 09:54:15;;;;;;;1.25;1.25;;;;;;;14.32;79.63;97671.28;5004243;28;20587;-57
2023/05/14 09:56:42;;;;;;;1.30;1.30;;;;;;;13.42;82.07;97656.44;5004240;28;20163;-58
2023/05/14 09:59:09;;;;;;;1.10;1.10;;;;;;;13.65;81.80;97721.22;5003498;28;20054;-56
2023/05/14 10:01:37;;;;;;;1.30;1.30;;;;;;;13.80;81.45;97715.88;5004607;28;20596;-56
2023/05/14 10:04:08;;;;;;;1.05;1.05;;;;;;;13.01;81.36;97693.50;5004158;28;20058;-56
2023/05/14 10:06:38;;;;;;;1.20;1.20;;;;;;;13.27;82.70;97715.81;5004809;28;20058;-56
2023/05/14 10:09:11;;;;;;;1.10;1.10;;;;;;;13.28;83.64;97725.78;5002731;28;20094;-57
2023/05/14 10:11:41;;;;;;;1.10;1.10;;;;;;;13.32;84.04;97701.59;5004679;28;20053;-56
2023/05/14 10:14:27;;;;;;;1.15;1.15;;;;;;;13.77;84.83;97677.66;5004054;28;20095;-58
2023/05/14 10:16:56;;;;;;;1.10;1.10;;;;;;;14.30;85.51;97640.19;5004230;28;20054;-57
2023/05/14 10:19:24;;;;;;;1.23;1.23;;;;;;;14.78;79.90;97686.53;5004032;28;20053;-56
2023/05/14 10:22:03;;;;;;;1.35;1.35;;;;;;;14.83;79.16;97688.97;5004325;28;20054;-59
2023/05/14 10:24:32;;;;;;;1.20;1.20;;;;;;;15.07;81.36;97699.59;5004151;28;20135;-57
2023/05/14 10:26:59;;;;;;;1.33;1.33;;;;;;;15.55;80.03;97684.53;4999370;28;20124;-57
2023/05/14 10:29:33;;;;;;;1.50;1.50;;;;;;;15.59;79.75;97646.25;4984454;28;20486;-57
2023/05/14 10:32:07;;;;;;;1.33;1.33;;;;;;;16.27;81.64;97693.75;4983877;28;20587;-58
2023/05/14 10:34:44;;;;;;;1.50;1.50;;;;;;;16.26;77.49;97664.22;4984450;28;20078;-57
2023/05/14 10:37:14;;;;;;;1.38;1.38;;;;;;;16.50;76.82;97677.50;4983200;28;20525;-57
2023/05/14 10:39:47;;;;;;;1.50;1.50;;;;;;;16.42;75.54;97667.44;4984347;28;20089;-58
2023/05/14 10:42:22;;;;;;;1.45;1.45;;;;;;;16.52;76.45;97663.94;4984571;28;20084;-57
2023/05/14 10:45:11;;;;;;;1.50;1.50;;;;;;;16.11;72.23;97617.00;4980542;28;20765;-57
2023/05/14 10:47:41;;;;;;;1.30;1.30;;;;;;;15.27;73.22;97684.22;4982817;28;20571;-56
2023/05/14 10:50:11;;;;;;;1.30;1.30;;;;;;;14.69;76.04;97669.31;4981997;28;20436;-56
2023/05/14 10:52:42;;;;;;;1.35;1.35;;;;;;;14.94;77.44;97654.44;4980938;28;20444;-56
2023/05/14 10:55:13;;;;;;;1.40;1.40;;;;;;;15.41;80.30;97634.16;4981757;28;20058;-56
2023/05/14 10:57:43;;;;;;;1.27;1.27;;;;;;;16.07;80.33;97649.72;4981656;28;20100;-56
2023/05/14 11:00:11;;;;;;;1.20;1.20;;;;;;;16.11;77.08;97645.75;4983839;28;20505;-57
2023/05/14 11:02:40;;;;;;;1.55;1.55;;;;;;;16.03;77.75;97596.59;4984163;28;20496;-57
2023/05/14 11:05:10;;;;;;;1.60;1.60;;;;;;;16.74;75.47;97645.22;4983425;28;20062;-56
2023/05/14 11:07:39;;;;;;;1.50;1.50;;;;;;;17.09;76.59;97638.88;4983404;28;20058;-57
2023/05/14 11:10:08;;;;;;;1.40;1.40;;;;;;;17.03;70.96;97648.88;4981399;28;20108;-57
2023/05/14 11:12:40;;;;;;;1.50;1.50;;;;;;;16.79;70.13;97618.88;4984691;28;20050;-59
2023/05/14 11:15:09;;;;;;;1.65;1.65;;;;;;;17.40;74.71;97638.13;4985990;28;20054;-57
2023/05/14 11:17:37;;;;;;;1.75;1.75;;;;;;;17.64;73.83;97626.13;4986158;28;20050;-60
2023/05/14 11:20:05;;;;;;;1.73;1.73;;;;;;;17.50;73.20;97626.13;4985595;28;20064;-57
2023/05/14 11:22:32;;;;;;;1.70;1.70;;;;;;;17.49;72.52;97607.72;4984961;28;20631;-57
2023/05/14 11:24:59;;;;;;;1.98;1.98;;;;;;;18.04;72.46;97615.22;4987850;28;20116;-57
2023/05/14 11:27:25;;;;;;;1.73;1.73;;;;;;;17.95;70.94;97614.03;5000971;28;20120;-55
2023/05/14 11:29:54;;;;;;;1.88;1.88;;;;;;;18.09;71.02;97614.00;5007281;28;20480;-56
2023/05/14 11:32:21;;;;;;;1.45;1.45;;;;;;;18.03;72.28;97621.22;5006762;28;20133;-55
2023/05/14 11:34:47;;;;;;;1.80;1.80;;;;;;;17.92;66.71;97626.84;5005798;28;20057;-58
2023/05/14 11:37:15;;;;;;;1.80;1.80;;;;;;;17.14;68.40;97624.50;5006814;28;20410;-56